Time;durP1;ratioP1;P1;durP2;ratioP2;P2;SDS_P1;SDS_P2;PMS_P1;PMS_P2;Temp;Humidity;BMP_temperature;BMP_pressure;BME280_temperature;BME280_humidity;BME280_pressure;Samples;Min_cycle;Max_cycle;Signal;HPM_P1;HPM_P2
2021/05/02 00:02:19;;;;;;;13.15;7.50;;;13.40;44.80;;;;;;4826222;29;20551;-75
2021/05/02 00:04:45;;;;;;;11.13;7.68;;;13.50;44.80;;;;;;4825993;29;20029;-75
2021/05/02 00:07:11;;;;;;;12.18;7.55;;;13.40;44.60;;;;;;4810595;29;20512;-75
2021/05/02 00:09:37;;;;;;;9.98;7.20;;;13.40;44.50;;;;;;4842102;29;20057;-76
2021/05/02 00:12:04;;;;;;;10.55;6.82;;;13.40;44.50;;;;;;4824717;29;20034;-74
2021/05/02 00:14:30;;;;;;;11.45;7.95;;;13.40;44.50;;;;;;4842111;29;20045;-74
2021/05/02 00:16:56;;;;;;;12.25;7.75;;;13.40;44.50;;;;;;4826162;29;20097;-75
2021/05/02 00:19:23;;;;;;;13.52;7.63;;;13.40;44.50;;;;;;4842437;29;20046;-76
2021/05/02 00:21:50;;;;;;;14.20;7.22;;;13.40;44.40;;;;;;4826050;29;20128;-77
2021/05/02 00:24:21;;;;;;;12.20;6.50;;;13.50;44.50;;;;;;4825689;29;20041;-77
2021/05/02 00:26:49;;;;;;;10.35;6.95;;;13.40;44.40;;;;;;4810429;29;20041;-74
2021/05/02 00:29:17;;;;;;;11.70;7.25;;;13.40;44.40;;;;;;4825817;29;20046;-74
2021/05/02 00:31:45;;;;;;;10.18;7.03;;;13.40;44.30;;;;;;4826228;29;20062;-75
2021/05/02 00:34:12;;;;;;;9.82;7.18;;;13.40;44.30;;;;;;4825908;29;20045;-75
2021/05/02 00:36:38;;;;;;;11.30;7.85;;;13.40;44.30;;;;;;4825703;29;20044;-75
2021/05/02 00:39:06;;;;;;;11.80;7.63;;;13.40;44.20;;;;;;4841963;29;20037;-75
2021/05/02 00:41:35;;;;;;;10.85;7.18;;;13.40;44.10;;;;;;4810213;29;20049;-75
2021/05/02 00:44:16;;;;;;;10.93;7.28;;;13.40;44.20;;;;;;4810103;29;20445;-75
2021/05/02 00:47:15;;;;;;;11.48;7.30;;;13.40;44.70;;;;;;4810602;29;20050;-76
2021/05/02 00:49:52;;;;;;;12.25;7.90;;;13.40;44.20;;;;;;4785144;29;20573;-75
2021/05/02 00:52:37;;;;;;;15.35;7.95;;;13.40;43.90;;;;;;4825539;29;20467;-77
2021/05/02 00:55:08;;;;;;;11.25;7.72;;;13.40;44.10;;;;;;4825695;29;20044;-76
2021/05/02 00:58:09;;;;;;;11.65;7.40;;;13.40;44.00;;;;;;4810629;29;20045;-76
2021/05/02 01:00:39;;;;;;;11.82;7.45;;;13.30;44.10;;;;;;4781866;29;20038;-75
2021/05/02 01:03:07;;;;;;;8.77;6.78;;;13.40;44.20;;;;;;4825180;29;20057;-73
2021/05/02 01:05:34;;;;;;;12.70;8.27;;;13.40;44.20;;;;;;4825800;29;20042;-75
2021/05/02 01:08:05;;;;;;;17.00;8.45;;;13.30;44.10;;;;;;4810061;29;20038;-74
2021/05/02 01:10:32;;;;;;;10.93;7.40;;;13.30;44.20;;;;;;4813714;29;20565;-74
2021/05/02 01:13:03;;;;;;;13.48;6.68;;;13.30;44.20;;;;;;4845161;29;20094;-74
2021/05/02 01:15:33;;;;;;;13.02;8.00;;;13.30;44.20;;;;;;4829516;29;20038;-76
2021/05/02 01:18:06;;;;;;;12.80;7.82;;;13.30;44.10;;;;;;4814425;29;20034;-76
2021/05/02 01:20:42;;;;;;;11.10;7.63;;;13.30;44.20;;;;;;4828404;29;20042;-75
2021/05/02 01:23:17;;;;;;;10.88;7.07;;;13.20;44.20;;;;;;4814152;29;20042;-74
2021/05/02 01:25:44;;;;;;;11.07;7.40;;;13.20;44.20;;;;;;4828390;29;20045;-75
2021/05/02 01:28:10;;;;;;;11.18;7.70;;;13.20;44.30;;;;;;4828655;29;20287;-75
2021/05/02 01:30:37;;;;;;;12.90;7.70;;;13.20;44.30;;;;;;4828740;29;20080;-75
2021/05/02 01:33:04;;;;;;;10.73;7.10;;;13.20;44.30;;;;;;4826963;29;20040;-77
2021/05/02 01:35:30;;;;;;;12.23;7.72;;;13.20;44.30;;;;;;4845177;29;20042;-76
2021/05/02 01:37:57;;;;;;;12.07;7.63;;;13.20;44.30;;;;;;4845006;29;20109;-75
2021/05/02 01:40:23;;;;;;;12.02;7.78;;;13.20;44.50;;;;;;4813375;29;20042;-76
2021/05/02 01:42:50;;;;;;;12.52;7.88;;;13.20;44.50;;;;;;4828284;29;20054;-76
2021/05/02 01:45:16;;;;;;;10.23;7.72;;;13.10;44.50;;;;;;4813420;29;20050;-74
2021/05/02 01:47:52;;;;;;;13.85;8.10;;;13.10;44.50;;;;;;4844517;29;20041;-75
2021/05/02 01:50:18;;;;;;;12.60;7.88;;;13.10;44.60;;;;;;4813694;29;20457;-75
2021/05/02 01:52:47;;;;;;;10.75;7.53;;;13.10;44.70;;;;;;4844265;29;20565;-75
2021/05/02 01:55:16;;;;;;;11.23;7.88;;;13.20;44.70;;;;;;4827940;29;20038;-76
2021/05/02 01:57:45;;;;;;;14.63;8.32;;;13.20;44.60;;;;;;4828535;29;20049;-76
2021/05/02 02:00:26;;;;;;;14.18;9.27;;;13.20;44.70;;;;;;4844536;29;20037;-76
2021/05/02 02:02:53;;;;;;;13.82;7.80;;;13.10;44.50;;;;;;4828326;29;20067;-78
2021/05/02 02:05:23;;;;;;;12.98;8.00;;;13.10;44.60;;;;;;4828323;29;20044;-77
2021/05/02 02:07:49;;;;;;;10.70;7.40;;;13.10;44.70;;;;;;4828404;29;20046;-77
2021/05/02 02:10:20;;;;;;;10.02;7.53;;;13.10;44.70;;;;;;4828294;29;20053;-76
2021/05/02 02:12:49;;;;;;;12.05;7.97;;;13.10;44.70;;;;;;4844619;29;20046;-76
2021/05/02 02:15:15;;;;;;;10.18;6.82;;;13.10;44.70;;;;;;4813035;29;20102;-75
2021/05/02 02:17:45;;;;;;;10.57;7.28;;;13.10;44.80;;;;;;4828417;29;20790;-77
2021/05/02 02:20:11;;;;;;;11.27;7.65;;;13.10;44.80;;;;;;4812534;29;20523;-74
2021/05/02 02:22:39;;;;;;;13.50;7.90;;;13.10;44.70;;;;;;4844096;29;20038;-76
2021/05/02 02:25:08;;;;;;;13.27;8.02;;;13.10;44.70;;;;;;4827507;29;20116;-75
2021/05/02 02:27:34;;;;;;;11.38;6.72;;;13.10;44.70;;;;;;4843705;29;20042;-74
2021/05/02 02:30:10;;;;;;;10.43;7.38;;;13.10;44.80;;;;;;4812579;29;20048;-76
2021/05/02 02:32:43;;;;;;;12.50;7.03;;;13.10;44.80;;;;;;4827156;29;20040;-75
2021/05/02 02:35:11;;;;;;;13.05;7.65;;;13.20;44.90;;;;;;4827499;29;20540;-75
2021/05/02 02:37:42;;;;;;;11.00;7.03;;;13.10;44.80;;;;;;4812364;29;20112;-75
2021/05/02 02:40:08;;;;;;;11.85;6.97;;;13.20;44.90;;;;;;4812352;29;20034;-75
2021/05/02 02:42:39;;;;;;;12.57;7.20;;;13.20;44.90;;;;;;4842394;29;20540;-75
2021/05/02 02:45:09;;;;;;;9.63;6.93;;;13.20;44.90;;;;;;4843381;29;20052;-74
2021/05/02 02:47:37;;;;;;;14.93;7.28;;;13.20;44.90;;;;;;4827010;29;20523;-76
2021/05/02 02:50:09;;;;;;;11.27;7.10;;;13.20;44.90;;;;;;4827152;29;20046;-75
2021/05/02 02:52:56;;;;;;;11.82;7.15;;;13.20;44.90;;;;;;4843608;29;20613;-74
2021/05/02 02:55:26;;;;;;;11.27;7.22;;;13.20;44.90;;;;;;4826819;29;20057;-75
2021/05/02 02:57:52;;;;;;;11.75;7.07;;;13.30;45.00;;;;;;4843795;29;20050;-74
2021/05/02 03:00:20;;;;;;;10.80;7.50;;;13.30;44.90;;;;;;4826878;29;20041;-74
2021/05/02 03:02:51;;;;;;;11.77;7.15;;;13.30;44.90;;;;;;4827089;29;20050;-74
2021/05/02 03:05:20;;;;;;;12.05;6.55;;;13.30;45.00;;;;;;4826469;29;20065;-74
2021/05/02 03:07:51;;;;;;;12.43;7.38;;;13.40;45.00;;;;;;4813262;29;20038;-73
2021/05/02 03:10:17;;;;;;;9.32;6.45;;;13.40;45.00;;;;;;4846616;29;20049;-75
2021/05/02 03:12:44;;;;;;;14.40;6.30;;;13.40;44.80;;;;;;4812714;29;20049;-77
2021/05/02 03:15:11;;;;;;;10.32;6.75;;;13.50;44.80;;;;;;4811789;29;20042;-76
2021/05/02 03:17:41;;;;;;;10.48;6.50;;;13.50;44.80;;;;;;4826977;29;20098;-77
2021/05/02 03:20:12;;;;;;;9.38;6.30;;;13.50;44.70;;;;;;4811768;29;20079;-74
2021/05/02 03:23:07;;;;;;;7.78;6.00;;;13.60;44.70;;;;;;4811530;29;20034;-75
2021/05/02 03:25:35;;;;;;;9.75;6.38;;;13.60;44.60;;;;;;4826948;29;20132;-76
2021/05/02 03:28:10;;;;;;;10.77;6.20;;;13.60;44.60;;;;;;4826791;29;20072;-76
2021/05/02 03:30:41;;;;;;;7.28;5.15;;;13.70;44.80;;;;;;4826551;29;20077;-75
2021/05/02 03:33:10;;;;;;;10.10;5.57;;;13.70;44.40;;;;;;4842323;29;20057;-75
2021/05/02 03:35:42;;;;;;;9.43;5.13;;;13.80;44.30;;;;;;4826460;29;20046;-75
2021/05/02 03:38:29;;;;;;;8.55;5.75;;;13.80;44.20;;;;;;4842867;29;20041;-75
2021/05/02 03:40:59;;;;;;;8.35;5.00;;;13.90;44.20;;;;;;4826332;29;20133;-75
2021/05/02 03:43:24;;;;;;;7.10;4.85;;;13.90;44.00;;;;;;4826105;29;20065;-76
2021/05/02 03:45:51;;;;;;;7.88;5.13;;;14.00;43.90;;;;;;4842875;29;20053;-77
2021/05/02 03:48:16;;;;;;;9.25;4.95;;;13.90;43.80;;;;;;4842488;29;20033;-77
2021/05/02 03:50:43;;;;;;;7.43;5.30;;;14.10;43.90;;;;;;4842422;29;20102;-76
2021/05/02 03:53:09;;;;;;;8.18;5.38;;;14.10;43.80;;;;;;4826221;29;20045;-74
2021/05/02 03:55:43;;;;;;;6.78;4.68;;;14.10;44.20;;;;;;4826146;29;20069;-75
2021/05/02 03:58:11;;;;;;;7.97;4.78;;;14.20;43.70;;;;;;4825717;29;20046;-73
2021/05/02 04:00:37;;;;;;;7.72;4.85;;;14.30;43.60;;;;;;4825991;29;20500;-75
2021/05/02 04:03:03;;;;;;;9.38;4.60;;;14.30;43.50;;;;;;4826040;29;20468;-76
2021/05/02 04:05:29;;;;;;;6.38;4.90;;;14.60;43.30;;;;;;4826048;29;20034;-77
2021/05/02 04:07:56;;;;;;;8.25;4.53;;;15.00;43.00;;;;;;4826001;29;20054;-77
2021/05/02 04:10:22;;;;;;;6.18;4.10;;;15.10;42.50;;;;;;4840607;29;20061;-76
2021/05/02 04:12:48;;;;;;;9.30;4.13;;;15.20;42.30;;;;;;4840913;29;20052;-78
2021/05/02 04:15:14;;;;;;;9.00;4.40;;;15.30;42.10;;;;;;4840641;29;20049;-74
2021/05/02 04:17:40;;;;;;;6.22;3.90;;;15.30;42.00;;;;;;4811414;29;20086;-74
2021/05/02 04:20:07;;;;;;;7.85;4.38;;;15.50;41.90;;;;;;4826034;29;20046;-72
2021/05/02 04:22:34;;;;;;;7.18;3.92;;;15.50;41.80;;;;;;4810801;29;20042;-75
2021/05/02 04:24:59;;;;;;;6.25;3.58;;;15.60;41.70;;;;;;4824367;29;20556;-75
2021/05/02 04:27:26;;;;;;;8.48;4.00;;;15.60;41.40;;;;;;4824860;29;20050;-75
2021/05/02 04:29:52;;;;;;;5.38;3.63;;;15.70;41.40;;;;;;4841579;29;20060;-77
2021/05/02 04:32:18;;;;;;;6.20;3.85;;;15.80;41.40;;;;;;4825784;29;20082;-75
2021/05/02 04:34:44;;;;;;;7.22;3.60;;;15.80;41.10;;;;;;4825963;29;20486;-76
2021/05/02 04:37:10;;;;;;;7.20;3.40;;;15.90;41.00;;;;;;4825697;29;20095;-73
2021/05/02 04:39:36;;;;;;;7.47;2.90;;;15.90;40.90;;;;;;4825754;29;20501;-74
2021/05/02 04:42:02;;;;;;;6.50;3.72;;;16.00;40.70;;;;;;4842636;29;20049;-72
2021/05/02 04:44:28;;;;;;;7.60;3.55;;;16.10;40.70;;;;;;4829536;29;20066;-73
2021/05/02 04:46:54;;;;;;;4.60;2.78;;;16.30;40.50;;;;;;4814153;29;20050;-73
2021/05/02 04:49:22;;;;;;;5.30;3.40;;;16.40;40.30;;;;;;4829732;29;20046;-73
2021/05/02 04:51:48;;;;;;;4.88;3.10;;;16.60;40.00;;;;;;4829278;29;20075;-73
2021/05/02 04:54:14;;;;;;;7.38;3.40;;;16.90;39.90;;;;;;4813947;29;20161;-75
2021/05/02 04:56:40;;;;;;;5.78;3.05;;;17.00;39.50;;;;;;4845594;29;20533;-73
2021/05/02 04:59:10;;;;;;;5.47;3.08;;;17.00;39.40;;;;;;4828716;29;20038;-73
2021/05/02 05:01:40;;;;;;;7.18;3.72;;;17.10;39.20;;;;;;4828547;29;20056;-73
2021/05/02 05:04:06;;;;;;;4.15;3.45;;;17.20;39.10;;;;;;4827872;29;20442;-75
2021/05/02 05:06:33;;;;;;;6.97;3.58;;;17.40;38.90;;;;;;4845294;29;20052;-74
2021/05/02 05:08:59;;;;;;;6.50;3.65;;;17.70;38.60;;;;;;4813359;29;20065;-74
2021/05/02 05:11:25;;;;;;;4.32;3.42;;;17.70;38.30;;;;;;4841349;29;20041;-74
2021/05/02 05:13:51;;;;;;;8.25;3.30;;;17.70;38.30;;;;;;4829547;29;20049;-73
2021/05/02 05:16:17;;;;;;;5.25;3.38;;;17.70;38.30;;;;;;4844883;29;20067;-76
2021/05/02 05:18:43;;;;;;;6.53;3.22;;;17.80;38.40;;;;;;4843376;29;20528;-73
2021/05/02 05:21:09;;;;;;;6.65;3.42;;;18.20;38.50;;;;;;4844259;29;20076;-76
2021/05/02 05:23:36;;;;;;;7.50;3.17;;;18.70;38.20;;;;;;4813121;29;20037;-73
2021/05/02 05:26:02;;;;;;;10.77;3.88;;;19.00;37.80;;;;;;4843850;29;20420;-75
2021/05/02 05:28:29;;;;;;;7.18;3.85;;;19.10;37.90;;;;;;4828279;29;20087;-74
2021/05/02 05:30:55;;;;;;;7.30;4.00;;;19.30;37.00;;;;;;4828311;29;20046;-73
2021/05/02 05:33:22;;;;;;;5.70;3.65;;;19.30;36.40;;;;;;4828343;29;20048;-73
2021/05/02 05:35:49;;;;;;;8.98;3.83;;;19.20;36.10;;;;;;4844683;29;20034;-72
2021/05/02 05:38:15;;;;;;;7.93;3.97;;;19.40;36.10;;;;;;4828351;29;20042;-69
2021/05/02 05:40:41;;;;;;;6.88;3.95;;;19.80;36.00;;;;;;4831772;29;20041;-70
2021/05/02 05:43:07;;;;;;;5.80;3.85;;;19.70;35.50;;;;;;4836440;29;20062;-70
2021/05/02 05:45:35;;;;;;;6.75;3.70;;;19.70;35.50;;;;;;4835459;29;20190;-73
2021/05/02 05:48:01;;;;;;;9.90;4.22;;;19.80;35.60;;;;;;4848783;29;20034;-71
2021/05/02 05:50:28;;;;;;;8.85;3.97;;;20.00;35.20;;;;;;4835702;29;20529;-73
2021/05/02 05:52:55;;;;;;;9.02;3.72;;;19.90;35.00;;;;;;4836346;29;20500;-70
2021/05/02 05:55:21;;;;;;;9.13;3.83;;;19.90;35.20;;;;;;4851704;29;20041;-76
2021/05/02 05:57:49;;;;;;;7.70;3.65;;;20.10;35.10;;;;;;4858388;29;20416;-72
2021/05/02 06:00:17;;;;;;;11.07;4.00;;;20.00;35.00;;;;;;4827801;29;20072;-75
2021/05/02 06:02:44;;;;;;;9.73;3.90;;;19.90;35.00;;;;;;4843956;29;20212;-77
2021/05/02 06:05:10;;;;;;;8.93;3.45;;;19.90;37.30;;;;;;4827554;29;20053;-78
2021/05/02 06:07:37;;;;;;;8.30;4.00;;;19.90;37.30;;;;;;4843544;29;20038;-73
2021/05/02 06:10:06;;;;;;;10.25;3.58;;;19.70;36.40;;;;;;4842348;29;20046;-74
2021/05/02 06:12:33;;;;;;;6.45;4.53;;;19.60;36.20;;;;;;4812483;29;20056;-75
2021/05/02 06:15:00;;;;;;;6.60;3.78;;;19.50;35.80;;;;;;4827613;29;20517;-75
2021/05/02 06:17:28;;;;;;;6.53;3.70;;;19.50;35.60;;;;;;4812550;29;20065;-76
2021/05/02 06:19:54;;;;;;;9.85;4.13;;;19.40;35.20;;;;;;4812309;29;20038;-80
2021/05/02 06:22:21;;;;;;;8.43;4.00;;;19.30;35.30;;;;;;4826186;29;20446;-80
2021/05/02 06:24:47;;;;;;;8.35;3.60;;;19.20;35.40;;;;;;4812222;29;20034;-76
2021/05/02 06:27:14;;;;;;;6.95;3.92;;;19.10;35.60;;;;;;4844013;29;20057;-76
2021/05/02 06:29:41;;;;;;;8.20;3.90;;;19.10;35.60;;;;;;4843678;29;20045;-77
2021/05/02 06:32:07;;;;;;;7.60;3.85;;;19.00;35.70;;;;;;4827506;29;20524;-78
2021/05/02 06:34:33;;;;;;;6.32;4.00;;;18.90;36.00;;;;;;4826724;29;20405;-72
2021/05/02 06:36:59;;;;;;;10.80;4.18;;;18.80;36.10;;;;;;4842749;29;20042;-74
2021/05/02 06:39:26;;;;;;;7.45;4.57;;;18.70;36.30;;;;;;4843501;29;20045;-74
2021/05/02 06:41:53;;;;;;;4.70;3.63;;;18.60;36.30;;;;;;4826895;29;20041;-73
2021/05/02 06:44:19;;;;;;;10.43;3.78;;;18.50;36.40;;;;;;4826452;29;20478;-75
2021/05/02 06:46:46;;;;;;;8.02;3.47;;;18.50;36.60;;;;;;4842842;29;20045;-73
2021/05/02 06:49:12;;;;;;;7.28;3.50;;;18.50;36.30;;;;;;4827283;29;20042;-72
2021/05/02 06:51:39;;;;;;;6.57;3.83;;;18.50;36.40;;;;;;4826655;29;20052;-77
2021/05/02 06:54:06;;;;;;;4.82;3.25;;;18.50;36.60;;;;;;4827243;29;20080;-75
2021/05/02 06:56:33;;;;;;;7.03;3.10;;;18.50;36.60;;;;;;4843433;29;20509;-75
2021/05/02 06:58:59;;;;;;;6.95;3.58;;;18.60;36.50;;;;;;4843105;29;20129;-76
2021/05/02 07:01:26;;;;;;;7.82;3.83;;;18.70;36.60;;;;;;4843156;29;20045;-75
2021/05/02 07:03:53;;;;;;;10.45;3.72;;;18.80;36.60;;;;;;4827088;29;20128;-75
2021/05/02 07:06:19;;;;;;;3.85;3.45;;;18.70;36.40;;;;;;4826055;29;20083;-77
2021/05/02 07:08:46;;;;;;;6.05;2.78;;;18.80;36.30;;;;;;4811859;29;20158;-76
2021/05/02 07:11:12;;;;;;;8.60;3.20;;;18.80;36.30;;;;;;4842838;29;20042;-75
2021/05/02 07:13:38;;;;;;;5.70;2.78;;;18.70;36.20;;;;;;4843053;29;20093;-75
2021/05/02 07:16:04;;;;;;;5.95;2.72;;;18.80;36.30;;;;;;4851530;29;20069;-77
2021/05/02 07:18:38;;;;;;;5.28;3.15;;;18.90;36.40;;;;;;4830024;29;20029;-72
2021/05/02 07:21:05;;;;;;;6.68;2.92;;;18.90;36.40;;;;;;4835300;29;20129;-76
2021/05/02 07:23:32;;;;;;;5.90;3.03;;;18.90;36.30;;;;;;4814999;29;20133;-76
2021/05/02 07:25:58;;;;;;;4.13;2.63;;;19.00;36.20;;;;;;4831765;29;20572;-74
2021/05/02 07:28:25;;;;;;;10.15;2.70;;;19.00;36.20;;;;;;4817931;29;20041;-76
2021/05/02 07:30:51;;;;;;;5.38;2.72;;;19.10;36.30;;;;;;4834561;29;20046;-78
2021/05/02 07:33:17;;;;;;;3.75;2.70;;;19.10;36.30;;;;;;4819054;29;20052;-76
2021/05/02 07:35:43;;;;;;;5.75;2.60;;;19.20;36.20;;;;;;4829336;29;20042;-78
2021/05/02 07:38:09;;;;;;;3.58;2.33;;;19.30;36.20;;;;;;4847119;29;20128;-81
2021/05/02 07:40:35;;;;;;;6.80;2.60;;;19.30;36.20;;;;;;4834991;29;20132;-83
2021/05/02 07:43:01;;;;;;;4.97;2.38;;;19.40;36.10;;;;;;4846484;29;20053;-84
2021/05/02 07:45:28;;;;;;;2.60;2.38;;;19.50;35.90;;;;;;4844313;29;20398;-87
2021/05/02 07:47:54;;;;;;;3.00;1.95;;;19.50;35.70;;;;;;4849245;29;20053;-80
2021/05/02 07:50:20;;;;;;;3.90;2.17;;;19.60;35.60;;;;;;4834889;29;20033;-78
2021/05/02 07:52:46;;;;;;;3.28;2.40;;;19.70;35.60;;;;;;4833773;29;20041;-78
2021/05/02 07:55:12;;;;;;;3.97;2.30;;;19.70;35.30;;;;;;4857721;29;20049;-77
2021/05/02 07:57:38;;;;;;;4.82;2.13;;;19.80;35.20;;;;;;4846127;29;20045;-80
2021/05/02 08:00:05;;;;;;;5.75;2.50;;;19.80;35.10;;;;;;4851395;29;20086;-79
2021/05/02 08:02:41;;;;;;;2.10;1.92;;;19.90;34.90;;;;;;4853599;29;20101;-78
2021/05/02 08:05:09;;;;;;;3.20;2.05;;;20.00;34.80;;;;;;4868439;29;20037;-84
2021/05/02 08:07:35;;;;;;;3.00;2.08;;;20.00;34.60;;;;;;4844224;29;20096;-87
2021/05/02 08:10:02;;;;;;;2.88;2.13;;;20.00;34.50;;;;;;4836729;29;20045;-83
2021/05/02 08:12:28;;;;;;;2.63;1.90;;;20.00;34.20;;;;;;4814910;29;20069;-82
2021/05/02 08:14:54;;;;;;;4.88;2.20;;;20.00;34.10;;;;;;4826320;29;20109;-81
2021/05/02 08:17:22;;;;;;;3.00;2.03;;;20.10;34.10;;;;;;4826516;29;20519;-81
2021/05/02 08:19:48;;;;;;;5.10;2.28;;;20.10;34.10;;;;;;4825967;29;20050;-80
2021/05/02 08:22:17;;;;;;;5.22;2.20;;;20.10;34.20;;;;;;4843473;29;20097;-80
2021/05/02 08:24:43;;;;;;;3.03;1.83;;;20.00;34.20;;;;;;4843348;29;20046;-77
2021/05/02 08:27:10;;;;;;;5.05;2.22;;;20.10;34.10;;;;;;4840667;29;20113;-75
2021/05/02 08:29:36;;;;;;;4.22;2.25;;;20.10;34.10;;;;;;4824802;29;20050;-77
2021/05/02 08:32:04;;;;;;;2.65;2.35;;;20.10;34.80;;;;;;4841979;29;20042;-79
2021/05/02 08:34:32;;;;;;;3.45;2.10;;;20.10;34.70;;;;;;4825811;29;20045;-77
2021/05/02 08:36:58;;;;;;;3.03;1.95;;;20.10;34.60;;;;;;4826763;29;20038;-77
2021/05/02 08:39:25;;;;;;;4.00;2.20;;;20.10;34.30;;;;;;4829101;29;20056;-79
2021/05/02 08:41:52;;;;;;;3.30;1.98;;;20.00;34.40;;;;;;4817512;29;20053;-77
2021/05/02 08:44:23;;;;;;;4.35;2.50;;;20.00;34.40;;;;;;4844976;29;20508;-79
2021/05/02 08:46:50;;;;;;;6.32;2.90;;;20.00;34.50;;;;;;4813025;29;20093;-75
2021/05/02 08:49:18;;;;;;;4.13;2.63;;;20.00;34.40;;;;;;4826222;29;20477;-75
2021/05/02 08:51:46;;;;;;;4.97;2.40;;;20.00;34.50;;;;;;4807117;29;20042;-74
2021/05/02 08:54:12;;;;;;;3.08;2.33;;;19.90;34.60;;;;;;4806666;29;20035;-74
2021/05/02 08:56:38;;;;;;;6.00;2.53;;;19.90;34.70;;;;;;4823211;29;20046;-72
2021/05/02 08:59:07;;;;;;;4.80;2.55;;;19.80;34.60;;;;;;4823686;29;20064;-75
2021/05/02 09:01:34;;;;;;;7.03;2.53;;;19.80;34.60;;;;;;4823398;29;20046;-73
2021/05/02 09:04:05;;;;;;;3.97;2.13;;;19.70;34.50;;;;;;4807264;29;20041;-73
2021/05/02 09:06:32;;;;;;;4.88;2.15;;;19.70;34.40;;;;;;4807046;29;20091;-74
2021/05/02 09:09:03;;;;;;;5.53;2.40;;;19.70;34.40;;;;;;4823511;29;20121;-74
2021/05/02 09:11:40;;;;;;;4.18;2.30;;;19.70;34.40;;;;;;4807147;29;20042;-73
2021/05/02 09:14:10;;;;;;;7.10;3.30;;;19.70;34.40;;;;;;4823020;29;20505;-74
2021/05/02 09:17:16;;;;;;;8.18;6.68;;;19.70;34.30;;;;;;4808138;29;20054;-74
2021/05/02 09:19:52;;;;;;;5.93;4.20;;;19.70;34.40;;;;;;4798865;29;20145;-75
2021/05/02 09:22:20;;;;;;;7.10;3.63;;;19.60;34.20;;;;;;4807004;29;20084;-73
2021/05/02 09:25:05;;;;;;;4.68;2.85;;;19.60;34.30;;;;;;4823046;29;20053;-73
2021/05/02 09:27:31;;;;;;;2.85;2.20;;;19.60;34.30;;;;;;4806821;29;20183;-73
2021/05/02 09:30:19;;;;;;;6.80;2.65;;;19.60;34.00;;;;;;4808095;29;20050;-73
2021/05/02 09:32:48;;;;;;;4.47;2.15;;;19.50;33.60;;;;;;4809944;29;20052;-72
2021/05/02 09:35:35;;;;;;;2.38;2.17;;;19.50;33.80;;;;;;4826393;29;20036;-73
2021/05/02 09:38:15;;;;;;;4.85;2.22;;;19.50;34.00;;;;;;4826205;29;20049;-73
2021/05/02 09:40:48;;;;;;;2.53;1.90;;;19.40;34.10;;;;;;4825288;29;20057;-74
2021/05/02 09:43:34;;;;;;;2.78;1.95;;;19.30;34.20;;;;;;4809955;29;20062;-72
2021/05/02 09:46:24;;;;;;;2.30;2.10;;;19.30;34.10;;;;;;4825208;29;20402;-72
2021/05/02 09:49:00;;;;;;;3.85;2.08;;;19.20;33.90;;;;;;4810294;29;20054;-72
2021/05/02 09:51:30;;;;;;;4.07;2.10;;;19.10;34.20;;;;;;4809856;29;20038;-73
2021/05/02 09:54:20;;;;;;;2.33;2.10;;;19.20;34.50;;;;;;4826198;29;20036;-74
2021/05/02 09:56:47;;;;;;;2.65;2.00;;;19.10;34.60;;;;;;4803540;29;20042;-73
2021/05/02 09:59:24;;;;;;;2.47;2.25;;;19.00;34.70;;;;;;4810052;29;20070;-73
2021/05/02 10:02:11;;;;;;;2.70;2.47;;;19.10;34.70;;;;;;4824555;29;20046;-75
2021/05/02 10:04:45;;;;;;;2.38;2.10;;;19.00;34.60;;;;;;4810044;29;20042;-73
2021/05/02 10:07:15;;;;;;;3.25;2.17;;;19.00;34.50;;;;;;4809638;29;20047;-73
2021/05/02 10:09:43;;;;;;;3.50;1.95;;;18.90;34.50;;;;;;4825921;29;20054;-72
2021/05/02 10:12:10;;;;;;;3.40;2.20;;;18.90;34.50;;;;;;4825120;29;20045;-74
2021/05/02 10:14:37;;;;;;;4.05;2.40;;;18.90;34.50;;;;;;4809098;29;20046;-74
2021/05/02 10:17:04;;;;;;;3.58;2.30;;;19.00;34.60;;;;;;4808558;29;20073;-72
2021/05/02 10:19:31;;;;;;;3.45;2.80;;;18.90;34.50;;;;;;4809477;29;20037;-73
2021/05/02 10:21:57;;;;;;;2.80;2.30;;;18.90;34.50;;;;;;4825953;29;20039;-73
2021/05/02 10:24:24;;;;;;;3.45;2.30;;;18.80;34.80;;;;;;4827045;29;20126;-72
2021/05/02 10:26:52;;;;;;;3.05;2.25;;;18.80;34.80;;;;;;4809149;29;20062;-73
2021/05/02 10:29:31;;;;;;;2.72;2.05;;;18.90;35.00;;;;;;4809326;29;20129;-73
2021/05/02 10:32:05;;;;;;;2.72;2.30;;;18.80;35.00;;;;;;4809213;29;20034;-72
2021/05/02 10:34:35;;;;;;;6.85;2.80;;;18.80;35.00;;;;;;4825036;29;20054;-73
2021/05/02 10:37:22;;;;;;;8.10;2.97;;;18.80;35.20;;;;;;4809426;29;20053;-72
2021/05/02 10:40:06;;;;;;;4.20;3.20;;;18.90;35.30;;;;;;4825959;29;20462;-73
2021/05/02 10:42:47;;;;;;;4.07;2.65;;;18.80;35.30;;;;;;4809360;29;20046;-75
2021/05/02 10:45:37;;;;;;;6.07;2.90;;;18.80;35.30;;;;;;4809056;29;20054;-74
2021/05/02 10:48:10;;;;;;;5.32;2.72;;;18.80;35.20;;;;;;4809199;29;20049;-72
2021/05/02 10:50:47;;;;;;;4.63;2.35;;;18.80;35.30;;;;;;4809999;29;20054;-73
2021/05/02 10:53:18;;;;;;;4.40;2.40;;;18.80;35.30;;;;;;4809127;29;20120;-72
2021/05/02 10:55:55;;;;;;;5.65;2.83;;;18.70;35.20;;;;;;4808865;29;20096;-77
2021/05/02 10:58:27;;;;;;;3.35;2.90;;;18.70;35.00;;;;;;4809848;29;20042;-74
2021/05/02 11:01:03;;;;;;;3.63;2.80;;;18.60;35.00;;;;;;4813196;29;20043;-75
2021/05/02 11:03:53;;;;;;;5.25;2.30;;;18.60;35.00;;;;;;4826722;29;20045;-76
2021/05/02 11:06:38;;;;;;;5.07;2.95;;;18.50;34.90;;;;;;4833346;29;20114;-76
2021/05/02 11:09:04;;;;;;;4.28;2.63;;;18.50;34.90;;;;;;4821980;29;20106;-75
2021/05/02 11:11:30;;;;;;;4.95;2.63;;;18.50;35.00;;;;;;4839585;29;20046;-77
2021/05/02 11:16:42;;;;;;;3.60;2.45;;;18.50;35.20;;;;;;4828106;29;20105;-75
2021/05/02 11:19:13;;;;;;;3.60;2.50;;;18.50;35.30;;;;;;4825296;29;20042;-78
2021/05/02 11:24:25;;;;;;;5.93;2.75;;;18.50;35.40;;;;;;4830163;29;20113;-76
2021/05/02 11:27:05;;;;;;;4.40;2.33;;;18.50;35.50;;;;;;4824238;29;20079;-76
2021/05/02 11:30:12;;;;;;;4.72;2.80;;;18.50;35.40;;;;;;4829195;29;20038;-77
2021/05/02 11:32:40;;;;;;;6.25;2.70;;;18.60;35.50;;;;;;4845464;29;20133;-75
2021/05/02 11:35:14;;;;;;;3.67;2.60;;;18.60;35.50;;;;;;4830476;29;20045;-75
2021/05/02 11:38:03;;;;;;;3.33;3.00;;;18.60;35.40;;;;;;4837212;29;20041;-74
2021/05/02 11:40:35;;;;;;;5.15;2.88;;;18.60;35.50;;;;;;4814471;29;20057;-72
2021/05/02 11:43:16;;;;;;;4.43;2.50;;;18.60;35.40;;;;;;4823707;29;20073;-74
2021/05/02 11:45:42;;;;;;;3.35;2.33;;;18.70;35.50;;;;;;4824856;29;20045;-72
2021/05/02 11:48:15;;;;;;;6.35;2.65;;;18.70;35.50;;;;;;4825186;29;20054;-75
2021/05/02 11:50:43;;;;;;;5.18;2.20;;;18.70;35.50;;;;;;4808263;29;20107;-81
2021/05/02 11:53:10;;;;;;;2.67;2.38;;;18.70;35.70;;;;;;4808071;29;20078;-72
2021/05/02 11:55:41;;;;;;;3.72;2.50;;;18.60;35.70;;;;;;4823323;29;20034;-72
2021/05/02 11:58:08;;;;;;;3.75;2.60;;;18.60;35.70;;;;;;4794125;29;20102;-74
2021/05/02 12:00:39;;;;;;;5.53;2.60;;;18.60;35.80;;;;;;4823023;29;20042;-76
2021/05/02 12:03:08;;;;;;;2.92;2.50;;;18.60;35.90;;;;;;4823909;29;20382;-74
2021/05/02 12:05:52;;;;;;;3.20;2.40;;;18.60;36.00;;;;;;4808212;29;20049;-80
2021/05/02 12:08:22;;;;;;;3.67;2.80;;;18.50;36.10;;;;;;4831659;29;20049;-76
2021/05/02 12:11:04;;;;;;;2.90;2.60;;;18.50;36.50;;;;;;4850789;29;20065;-77
2021/05/02 12:13:32;;;;;;;4.20;3.10;;;18.50;36.30;;;;;;4833094;29;20536;-76
2021/05/02 12:16:02;;;;;;;7.93;3.08;;;18.50;36.30;;;;;;4833231;29;20037;-75
2021/05/02 12:18:44;;;;;;;5.50;2.88;;;18.50;36.20;;;;;;4848608;29;20158;-78
2021/05/02 12:21:36;;;;;;;5.30;2.92;;;18.50;36.10;;;;;;4820033;29;20037;-77
2021/05/02 12:24:28;;;;;;;6.53;3.03;;;18.50;36.30;;;;;;4843973;29;20048;-78
2021/05/02 12:27:10;;;;;;;4.47;2.83;;;18.40;36.10;;;;;;4827453;29;20035;-74
2021/05/02 12:29:43;;;;;;;6.82;3.20;;;18.30;36.20;;;;;;4820108;29;20056;-77
2021/05/02 12:32:11;;;;;;;7.70;3.10;;;18.30;36.30;;;;;;4851093;29;20052;-77
2021/05/02 12:34:48;;;;;;;3.65;2.90;;;18.30;36.60;;;;;;4850003;29;20045;-82
2021/05/02 12:37:23;;;;;;;9.50;3.22;;;18.30;36.80;;;;;;4832900;29;20037;-72
2021/05/02 12:39:52;;;;;;;6.07;3.15;;;18.30;37.10;;;;;;4838244;29;20089;-74
2021/05/02 12:42:29;;;;;;;7.63;3.05;;;18.20;37.30;;;;;;4841765;29;20041;-75
2021/05/02 12:44:55;;;;;;;6.55;3.50;;;18.20;37.70;;;;;;4834274;29;20069;-73
2021/05/02 12:47:30;;;;;;;6.65;3.25;;;18.20;38.00;;;;;;4848969;29;20121;-71
2021/05/02 12:50:04;;;;;;;5.75;3.20;;;18.20;38.20;;;;;;4831433;29;20045;-72
2021/05/02 12:52:35;;;;;;;9.20;3.55;;;18.20;38.60;;;;;;4834797;29;20053;-73
2021/05/02 12:55:25;;;;;;;8.05;3.70;;;18.20;38.90;;;;;;4829449;29;20147;-74
2021/05/02 12:57:54;;;;;;;6.85;3.58;;;18.10;39.20;;;;;;4828170;29;20051;-71
2021/05/02 13:00:28;;;;;;;5.65;3.28;;;18.10;39.30;;;;;;4843361;29;20136;-72
2021/05/02 13:02:55;;;;;;;7.50;3.50;;;18.10;39.40;;;;;;4828870;29;20029;-74
2021/05/02 13:05:22;;;;;;;11.05;4.20;;;18.10;39.60;;;;;;4847146;29;20056;-72